sensor_id;sensor_type;location;lat;lon;timestamp;temperature;humidity
11597;DHT22;5854;48.072;16.286;2022-07-29T06:20:59;23.50;51.70
11597;DHT22;5854;48.072;16.286;2022-07-29T06:23:32;23.50;51.70
11597;DHT22;5854;48.072;16.286;2022-07-29T06:26:06;23.40;52.00
11597;DHT22;5854;48.072;16.286;2022-07-29T06:28:34;23.50;51.90
11597;DHT22;5854;48.072;16.286;2022-07-29T06:31:01;23.50;52.30
11597;DHT22;5854;48.072;16.286;2022-07-29T06:33:28;23.50;52.30
11597;DHT22;5854;48.072;16.286;2022-07-29T06:35:56;23.60;51.90
11597;DHT22;5854;48.072;16.286;2022-07-29T06:38:25;23.60;52.40
11597;DHT22;5854;48.072;16.286;2022-07-29T06:40:52;23.60;51.70
11597;DHT22;5854;48.072;16.286;2022-07-29T06:43:34;23.60;52.10
11597;DHT22;5854;48.072;16.286;2022-07-29T06:46:04;23.60;51.50
11597;DHT22;5854;48.072;16.286;2022-07-29T06:48:34;23.60;51.60
11597;DHT22;5854;48.072;16.286;2022-07-29T06:51:04;23.50;51.00
11597;DHT22;5854;48.072;16.286;2022-07-29T06:53:33;23.50;52.10
11597;DHT22;5854;48.072;16.286;2022-07-29T06:56:01;23.50;52.10
11597;DHT22;5854;48.072;16.286;2022-07-29T06:58:30;23.60;51.90
11597;DHT22;5854;48.072;16.286;2022-07-29T07:01:00;23.60;52.80
11597;DHT22;5854;48.072;16.286;2022-07-29T07:03:29;23.70;52.60
11597;DHT22;5854;48.072;16.286;2022-07-29T07:05:57;23.80;51.40
11597;DHT22;5854;48.072;16.286;2022-07-29T07:08:26;23.90;51.90
11597;DHT22;5854;48.072;16.286;2022-07-29T07:10:53;25.00;50.60
11597;DHT22;5854;48.072;16.286;2022-07-29T07:13:22;26.20;46.80
11597;DHT22;5854;48.072;16.286;2022-07-29T07:15:50;26.10;45.30
11597;DHT22;5854;48.072;16.286;2022-07-29T07:18:18;26.20;45.90
11597;DHT22;5854;48.072;16.286;2022-07-29T07:20:45;26.50;44.60
11597;DHT22;5854;48.072;16.286;2022-07-29T07:23:13;27.00;44.40
11597;DHT22;5854;48.072;16.286;2022-07-29T07:25:41;28.20;41.80
11597;DHT22;5854;48.072;16.286;2022-07-29T07:28:08;28.40;39.30
11597;DHT22;5854;48.072;16.286;2022-07-29T07:30:35;28.80;38.90
11597;DHT22;5854;48.072;16.286;2022-07-29T07:33:03;29.30;38.70
11597;DHT22;5854;48.072;16.286;2022-07-29T07:35:30;29.90;37.00
11597;DHT22;5854;48.072;16.286;2022-07-29T07:37:57;30.10;37.10
11597;DHT22;5854;48.072;16.286;2022-07-29T07:40:25;30.30;36.80
11597;DHT22;5854;48.072;16.286;2022-07-29T07:42:53;30.20;37.00
11597;DHT22;5854;48.072;16.286;2022-07-29T07:45:20;30.40;36.60
11597;DHT22;5854;48.072;16.286;2022-07-29T07:47:47;30.80;35.70
11597;DHT22;5854;48.072;16.286;2022-07-29T07:50:15;30.80;35.20
11597;DHT22;5854;48.072;16.286;2022-07-29T07:52:47;31.30;35.90
11597;DHT22;5854;48.072;16.286;2022-07-29T07:55:15;32.00;34.50
11597;DHT22;5854;48.072;16.286;2022-07-29T07:57:43;32.00;33.20
11597;DHT22;5854;48.072;16.286;2022-07-29T08:00:13;31.50;33.90
11597;DHT22;5854;48.072;16.286;2022-07-29T08:02:41;31.60;33.80
11597;DHT22;5854;48.072;16.286;2022-07-29T08:05:10;31.60;34.30
11597;DHT22;5854;48.072;16.286;2022-07-29T08:07:42;31.70;35.30
11597;DHT22;5854;48.072;16.286;2022-07-29T08:10:10;30.40;35.60
11597;DHT22;5854;48.072;16.286;2022-07-29T08:12:40;29.20;37.90
11597;DHT22;5854;48.072;16.286;2022-07-29T08:15:10;28.50;39.50
11597;DHT22;5854;48.072;16.286;2022-07-29T08:17:38;28.10;40.20
11597;DHT22;5854;48.072;16.286;2022-07-29T08:20:06;27.50;41.70
11597;DHT22;5854;48.072;16.286;2022-07-29T08:22:33;27.10;42.20
11597;DHT22;5854;48.072;16.286;2022-07-29T08:25:00;26.90;42.80
11597;DHT22;5854;48.072;16.286;2022-07-29T08:27:27;27.00;43.00
11597;DHT22;5854;48.072;16.286;2022-07-29T08:29:56;27.20;43.40
11597;DHT22;5854;48.072;16.286;2022-07-29T08:32:24;27.50;41.70
11597;DHT22;5854;48.072;16.286;2022-07-29T08:34:53;27.50;42.20
11597;DHT22;5854;48.072;16.286;2022-07-29T08:37:20;27.40;41.70
11597;DHT22;5854;48.072;16.286;2022-07-29T08:39:48;27.10;42.30
11597;DHT22;5854;48.072;16.286;2022-07-29T08:42:15;26.90;42.50
11597;DHT22;5854;48.072;16.286;2022-07-29T08:44:42;26.70;43.10
11597;DHT22;5854;48.072;16.286;2022-07-29T08:47:10;26.90;42.20
11597;DHT22;5854;48.072;16.286;2022-07-29T08:49:41;27.00;43.30
11597;DHT22;5854;48.072;16.286;2022-07-29T08:52:11;26.90;42.60
11597;DHT22;5854;48.072;16.286;2022-07-29T08:54:39;26.90;42.90
11597;DHT22;5854;48.072;16.286;2022-07-29T08:57:06;26.80;42.80
11597;DHT22;5854;48.072;16.286;2022-07-29T08:59:34;26.90;43.00
11597;DHT22;5854;48.072;16.286;2022-07-29T09:02:02;27.20;42.90
11597;DHT22;5854;48.072;16.286;2022-07-29T09:04:34;27.50;41.90
11597;DHT22;5854;48.072;16.286;2022-07-29T09:07:04;27.60;42.30
11597;DHT22;5854;48.072;16.286;2022-07-29T09:09:33;27.50;40.90
11597;DHT22;5854;48.072;16.286;2022-07-29T09:12:01;27.30;41.40
11597;DHT22;5854;48.072;16.286;2022-07-29T09:14:29;27.30;41.80
11597;DHT22;5854;48.072;16.286;2022-07-29T09:16:56;27.30;42.30
11597;DHT22;5854;48.072;16.286;2022-07-29T09:19:26;27.50;41.80
11597;DHT22;5854;48.072;16.286;2022-07-29T09:21:55;27.50;42.30
11597;DHT22;5854;48.072;16.286;2022-07-29T09:24:44;27.30;42.30
11597;DHT22;5854;48.072;16.286;2022-07-29T09:27:21;27.40;42.20
11597;DHT22;5854;48.072;16.286;2022-07-29T09:29:58;27.50;41.60
11597;DHT22;5854;48.072;16.286;2022-07-29T09:32:27;27.40;42.00
11597;DHT22;5854;48.072;16.286;2022-07-29T09:35:16;27.30;42.90
11597;DHT22;5854;48.072;16.286;2022-07-29T09:37:44;27.40;43.40
11597;DHT22;5854;48.072;16.286;2022-07-29T09:40:15;27.50;42.10
11597;DHT22;5854;48.072;16.286;2022-07-29T09:42:44;27.50;41.80
11597;DHT22;5854;48.072;16.286;2022-07-29T09:45:12;27.40;42.70
11597;DHT22;5854;48.072;16.286;2022-07-29T09:47:45;27.60;42.20
11597;DHT22;5854;48.072;16.286;2022-07-29T09:50:14;27.40;42.60
11597;DHT22;5854;48.072;16.286;2022-07-29T09:52:46;27.40;43.10
11597;DHT22;5854;48.072;16.286;2022-07-29T09:55:16;27.70;42.50
11597;DHT22;5854;48.072;16.286;2022-07-29T09:57:44;27.90;41.70
11597;DHT22;5854;48.072;16.286;2022-07-29T10:00:13;27.80;41.60
11597;DHT22;5854;48.072;16.286;2022-07-29T10:02:42;27.90;41.50
11597;DHT22;5854;48.072;16.286;2022-07-29T10:05:20;28.10;41.70
11597;DHT22;5854;48.072;16.286;2022-07-29T10:07:49;28.40;40.80
11597;DHT22;5854;48.072;16.286;2022-07-29T10:10:23;28.50;40.70
11597;DHT22;5854;48.072;16.286;2022-07-29T10:12:54;28.40;39.70
11597;DHT22;5854;48.072;16.286;2022-07-29T10:15:24;28.30;39.70
11597;DHT22;5854;48.072;16.286;2022-07-29T10:17:52;28.30;40.80
11597;DHT22;5854;48.072;16.286;2022-07-29T10:20:21;28.30;41.30
11597;DHT22;5854;48.072;16.286;2022-07-29T10:22:49;28.20;41.20
11597;DHT22;5854;48.072;16.286;2022-07-29T10:25:17;28.20;40.60
11597;DHT22;5854;48.072;16.286;2022-07-29T10:27:48;28.20;41.30
11597;DHT22;5854;48.072;16.286;2022-07-29T10:30:17;28.10;39.80
11597;DHT22;5854;48.072;16.286;2022-07-29T10:32:54;27.90;39.50
11597;DHT22;5854;48.072;16.286;2022-07-29T10:35:46;28.00;41.40
11597;DHT22;5854;48.072;16.286;2022-07-29T10:38:29;28.00;41.50
11597;DHT22;5854;48.072;16.286;2022-07-29T10:41:18;28.10;40.30
11597;DHT22;5854;48.072;16.286;2022-07-29T10:44:09;28.10;39.30
11597;DHT22;5854;48.072;16.286;2022-07-29T10:46:41;28.20;38.90
11597;DHT22;5854;48.072;16.286;2022-07-29T10:49:10;28.30;39.50
11597;DHT22;5854;48.072;16.286;2022-07-29T10:51:59;28.40;38.80
11597;DHT22;5854;48.072;16.286;2022-07-29T10:54:45;28.60;39.10
11597;DHT22;5854;48.072;16.286;2022-07-29T10:57:18;28.60;40.20
11597;DHT22;5854;48.072;16.286;2022-07-29T11:00:29;28.70;40.00
11597;DHT22;5854;48.072;16.286;2022-07-29T11:02:58;28.40;38.90
11597;DHT22;5854;48.072;16.286;2022-07-29T11:05:26;28.60;40.30
11597;DHT22;5854;48.072;16.286;2022-07-29T11:14:02;28.60;39.80
11597;DHT22;5854;48.072;16.286;2022-07-29T11:17:02;28.60;40.20
11597;DHT22;5854;48.072;16.286;2022-07-29T11:19:30;28.60;40.80
11597;DHT22;5854;48.072;16.286;2022-07-29T11:21:58;28.70;39.40
11597;DHT22;5854;48.072;16.286;2022-07-29T11:24:26;28.70;40.50
11597;DHT22;5854;48.072;16.286;2022-07-29T11:27:11;28.80;39.90
11597;DHT22;5854;48.072;16.286;2022-07-29T11:29:50;28.80;40.40
11597;DHT22;5854;48.072;16.286;2022-07-29T11:32:22;28.90;39.50
11597;DHT22;5854;48.072;16.286;2022-07-29T11:35:10;28.90;38.50
11597;DHT22;5854;48.072;16.286;2022-07-29T11:37:38;28.90;38.50
11597;DHT22;5854;48.072;16.286;2022-07-29T11:40:23;29.20;39.00
11597;DHT22;5854;48.072;16.286;2022-07-29T11:42:51;29.30;38.10
11597;DHT22;5854;48.072;16.286;2022-07-29T11:45:25;29.40;38.00
11597;DHT22;5854;48.072;16.286;2022-07-29T11:47:59;29.60;37.60
11597;DHT22;5854;48.072;16.286;2022-07-29T11:50:34;29.50;39.10
11597;DHT22;5854;48.072;16.286;2022-07-29T11:53:09;29.60;37.90
11597;DHT22;5854;48.072;16.286;2022-07-29T11:55:37;29.50;38.10
11597;DHT22;5854;48.072;16.286;2022-07-29T11:58:05;29.40;39.40
11597;DHT22;5854;48.072;16.286;2022-07-29T12:00:34;29.40;38.40
11597;DHT22;5854;48.072;16.286;2022-07-29T12:03:05;29.40;40.70
11597;DHT22;5854;48.072;16.286;2022-07-29T12:05:36;29.40;36.90
11597;DHT22;5854;48.072;16.286;2022-07-29T12:08:07;29.40;37.90
11597;DHT22;5854;48.072;16.286;2022-07-29T12:10:36;29.50;38.30
11597;DHT22;5854;48.072;16.286;2022-07-29T12:13:04;29.50;37.50
11597;DHT22;5854;48.072;16.286;2022-07-29T12:15:32;29.40;37.90
11597;DHT22;5854;48.072;16.286;2022-07-29T12:18:11;29.40;40.30
11597;DHT22;5854;48.072;16.286;2022-07-29T12:20:39;29.40;38.80
11597;DHT22;5854;48.072;16.286;2022-07-29T12:23:07;29.30;38.70
11597;DHT22;5854;48.072;16.286;2022-07-29T12:25:35;29.20;40.20
11597;DHT22;5854;48.072;16.286;2022-07-29T12:28:04;29.20;40.40
11597;DHT22;5854;48.072;16.286;2022-07-29T12:30:38;29.30;38.10
11597;DHT22;5854;48.072;16.286;2022-07-29T12:33:22;30.20;36.50
11597;DHT22;5854;48.072;16.286;2022-07-29T12:35:54;31.50;34.50
11597;DHT22;5854;48.072;16.286;2022-07-29T12:38:23;31.60;34.10
11597;DHT22;5854;48.072;16.286;2022-07-29T12:40:51;31.10;35.30
11597;DHT22;5854;48.072;16.286;2022-07-29T12:43:20;30.60;35.60
11597;DHT22;5854;48.072;16.286;2022-07-29T12:45:49;30.20;37.40
11597;DHT22;5854;48.072;16.286;2022-07-29T12:48:18;30.00;36.90
11597;DHT22;5854;48.072;16.286;2022-07-29T12:51:02;29.90;36.50
11597;DHT22;5854;48.072;16.286;2022-07-29T12:53:30;29.70;36.60
11597;DHT22;5854;48.072;16.286;2022-07-29T12:55:58;29.60;38.30
11597;DHT22;5854;48.072;16.286;2022-07-29T12:58:32;29.60;37.00
11597;DHT22;5854;48.072;16.286;2022-07-29T13:01:02;30.20;36.80
11597;DHT22;5854;48.072;16.286;2022-07-29T13:03:44;30.40;38.40
11597;DHT22;5854;48.072;16.286;2022-07-29T13:06:34;30.10;36.50
11597;DHT22;5854;48.072;16.286;2022-07-29T13:09:08;30.00;36.70
11597;DHT22;5854;48.072;16.286;2022-07-29T13:11:39;29.90;37.20
11597;DHT22;5854;48.072;16.286;2022-07-29T13:14:08;29.60;37.80
11597;DHT22;5854;48.072;16.286;2022-07-29T13:16:38;29.50;37.00
11597;DHT22;5854;48.072;16.286;2022-07-29T13:19:35;29.30;37.90
11597;DHT22;5854;48.072;16.286;2022-07-29T13:22:03;29.10;41.00
11597;DHT22;5854;48.072;16.286;2022-07-29T13:24:31;28.80;41.10
11597;DHT22;5854;48.072;16.286;2022-07-29T13:26:58;28.50;42.00
11597;DHT22;5854;48.072;16.286;2022-07-29T13:29:26;28.30;43.00
11597;DHT22;5854;48.072;16.286;2022-07-29T13:31:53;28.10;43.90
11597;DHT22;5854;48.072;16.286;2022-07-29T13:34:20;27.90;43.60
11597;DHT22;5854;48.072;16.286;2022-07-29T13:36:51;27.80;44.10
11597;DHT22;5854;48.072;16.286;2022-07-29T13:39:18;27.60;44.50
11597;DHT22;5854;48.072;16.286;2022-07-29T13:41:45;27.40;45.20
11597;DHT22;5854;48.072;16.286;2022-07-29T13:44:12;27.30;46.20
11597;DHT22;5854;48.072;16.286;2022-07-29T13:46:39;27.30;46.70
11597;DHT22;5854;48.072;16.286;2022-07-29T13:49:06;27.20;46.80
11597;DHT22;5854;48.072;16.286;2022-07-29T13:51:33;27.20;46.80
11597;DHT22;5854;48.072;16.286;2022-07-29T13:54:02;27.20;46.80
11597;DHT22;5854;48.072;16.286;2022-07-29T13:56:29;27.00;47.30
11597;DHT22;5854;48.072;16.286;2022-07-29T13:58:57;26.70;48.00
11597;DHT22;5854;48.072;16.286;2022-07-29T14:01:24;26.70;48.60
11597;DHT22;5854;48.072;16.286;2022-07-29T14:03:51;26.50;49.80
11597;DHT22;5854;48.072;16.286;2022-07-29T14:06:18;26.20;50.40
11597;DHT22;5854;48.072;16.286;2022-07-29T14:08:45;26.10;51.10
11597;DHT22;5854;48.072;16.286;2022-07-29T14:11:14;25.90;51.50
11597;DHT22;5854;48.072;16.286;2022-07-29T14:13:41;25.90;52.30
11597;DHT22;5854;48.072;16.286;2022-07-29T14:16:08;25.50;53.10
11597;DHT22;5854;48.072;16.286;2022-07-29T14:18:35;25.60;53.40
11597;DHT22;5854;48.072;16.286;2022-07-29T14:21:02;25.50;53.10
11597;DHT22;5854;48.072;16.286;2022-07-29T14:23:30;25.40;54.20
11597;DHT22;5854;48.072;16.286;2022-07-29T14:25:57;25.40;55.30
11597;DHT22;5854;48.072;16.286;2022-07-29T14:28:25;25.40;54.00
11597;DHT22;5854;48.072;16.286;2022-07-29T14:30:52;25.60;53.50
11597;DHT22;5854;48.072;16.286;2022-07-29T14:33:20;25.70;54.40
11597;DHT22;5854;48.072;16.286;2022-07-29T14:35:47;25.30;54.60
11597;DHT22;5854;48.072;16.286;2022-07-29T14:38:14;25.40;54.90
11597;DHT22;5854;48.072;16.286;2022-07-29T14:40:41;25.50;54.90
11597;DHT22;5854;48.072;16.286;2022-07-29T14:43:08;25.50;56.80
11597;DHT22;5854;48.072;16.286;2022-07-29T14:45:37;25.50;55.60
11597;DHT22;5854;48.072;16.286;2022-07-29T14:48:04;25.60;56.30
11597;DHT22;5854;48.072;16.286;2022-07-29T14:50:31;25.50;55.70
11597;DHT22;5854;48.072;16.286;2022-07-29T14:52:59;25.70;57.60
11597;DHT22;5854;48.072;16.286;2022-07-29T14:55:26;25.80;54.30
11597;DHT22;5854;48.072;16.286;2022-07-29T14:57:53;26.00;54.30
11597;DHT22;5854;48.072;16.286;2022-07-29T15:00:21;26.10;54.30
11597;DHT22;5854;48.072;16.286;2022-07-29T15:02:49;26.10;54.30
11597;DHT22;5854;48.072;16.286;2022-07-29T15:05:17;26.00;54.00
11597;DHT22;5854;48.072;16.286;2022-07-29T15:07:44;25.80;56.40
11597;DHT22;5854;48.072;16.286;2022-07-29T15:10:11;25.80;57.30
11597;DHT22;5854;48.072;16.286;2022-07-29T15:12:38;25.90;56.50
11597;DHT22;5854;48.072;16.286;2022-07-29T15:15:06;25.90;58.10
11597;DHT22;5854;48.072;16.286;2022-07-29T15:17:34;25.90;57.10
11597;DHT22;5854;48.072;16.286;2022-07-29T15:20:04;25.90;54.20
11597;DHT22;5854;48.072;16.286;2022-07-29T15:22:32;25.90;54.30
11597;DHT22;5854;48.072;16.286;2022-07-29T15:24:59;25.80;55.90
11597;DHT22;5854;48.072;16.286;2022-07-29T15:27:26;25.80;58.90
11597;DHT22;5854;48.072;16.286;2022-07-29T15:29:53;25.80;61.80
11597;DHT22;5854;48.072;16.286;2022-07-29T15:32:20;25.90;55.90
11597;DHT22;5854;48.072;16.286;2022-07-29T15:34:47;25.90;55.30
11597;DHT22;5854;48.072;16.286;2022-07-29T15:37:16;25.90;54.30
11597;DHT22;5854;48.072;16.286;2022-07-29T15:39:43;25.90;55.70
11597;DHT22;5854;48.072;16.286;2022-07-29T15:42:10;25.90;56.10
11597;DHT22;5854;48.072;16.286;2022-07-29T15:44:37;26.00;54.60
11597;DHT22;5854;48.072;16.286;2022-07-29T15:47:04;25.90;54.90
11597;DHT22;5854;48.072;16.286;2022-07-29T15:49:34;25.90;54.40
11597;DHT22;5854;48.072;16.286;2022-07-29T15:52:03;25.80;56.30
11597;DHT22;5854;48.072;16.286;2022-07-29T15:54:34;25.90;56.50
11597;DHT22;5854;48.072;16.286;2022-07-29T15:57:03;25.90;55.40
11597;DHT22;5854;48.072;16.286;2022-07-29T15:59:32;25.90;54.50
11597;DHT22;5854;48.072;16.286;2022-07-29T16:01:59;26.00;55.30
11597;DHT22;5854;48.072;16.286;2022-07-29T16:04:27;26.00;55.00
11597;DHT22;5854;48.072;16.286;2022-07-29T16:06:54;26.00;54.80
11597;DHT22;5854;48.072;16.286;2022-07-29T16:09:21;25.80;56.00
11597;DHT22;5854;48.072;16.286;2022-07-29T16:11:50;25.90;54.80
11597;DHT22;5854;48.072;16.286;2022-07-29T16:14:18;25.90;53.80
11597;DHT22;5854;48.072;16.286;2022-07-29T16:16:46;26.00;54.60
11597;DHT22;5854;48.072;16.286;2022-07-29T16:19:13;26.00;56.00
11597;DHT22;5854;48.072;16.286;2022-07-29T16:21:40;26.00;54.90
11597;DHT22;5854;48.072;16.286;2022-07-29T16:24:08;25.90;54.50
11597;DHT22;5854;48.072;16.286;2022-07-29T16:26:35;26.00;55.20
11597;DHT22;5854;48.072;16.286;2022-07-29T16:29:04;26.00;55.30
11597;DHT22;5854;48.072;16.286;2022-07-29T16:31:31;26.10;56.30
11597;DHT22;5854;48.072;16.286;2022-07-29T16:33:59;26.30;57.80
11597;DHT22;5854;48.072;16.286;2022-07-29T16:36:27;26.40;56.30
11597;DHT22;5854;48.072;16.286;2022-07-29T16:38:54;26.50;55.60
11597;DHT22;5854;48.072;16.286;2022-07-29T16:41:21;26.60;57.30
11597;DHT22;5854;48.072;16.286;2022-07-29T16:43:49;26.70;56.90
11597;DHT22;5854;48.072;16.286;2022-07-29T16:46:17;26.80;55.40
11597;DHT22;5854;48.072;16.286;2022-07-29T16:48:46;26.60;54.00
11597;DHT22;5854;48.072;16.286;2022-07-29T16:51:13;26.60;55.50
11597;DHT22;5854;48.072;16.286;2022-07-29T16:53:40;26.90;55.80
11597;DHT22;5854;48.072;16.286;2022-07-29T16:56:09;27.00;54.30
11597;DHT22;5854;48.072;16.286;2022-07-29T16:58:36;27.00;57.10
11597;DHT22;5854;48.072;16.286;2022-07-29T17:01:03;26.60;57.40
11597;DHT22;5854;48.072;16.286;2022-07-29T17:03:32;26.50;59.20
11597;DHT22;5854;48.072;16.286;2022-07-29T17:05:59;26.60;58.00
11597;DHT22;5854;48.072;16.286;2022-07-29T17:08:26;26.60;57.00
11597;DHT22;5854;48.072;16.286;2022-07-29T17:10:53;26.30;59.70
11597;DHT22;5854;48.072;16.286;2022-07-29T17:13:21;26.20;62.20
11597;DHT22;5854;48.072;16.286;2022-07-29T17:15:48;26.00;61.20
11597;DHT22;5854;48.072;16.286;2022-07-29T17:18:15;25.80;60.20
11597;DHT22;5854;48.072;16.286;2022-07-29T17:20:43;25.80;65.20
11597;DHT22;5854;48.072;16.286;2022-07-29T17:23:11;25.80;63.20
11597;DHT22;5854;48.072;16.286;2022-07-29T17:25:38;25.80;65.50
11597;DHT22;5854;48.072;16.286;2022-07-29T17:28:05;25.80;59.20
11597;DHT22;5854;48.072;16.286;2022-07-29T17:30:32;25.90;65.30
11597;DHT22;5854;48.072;16.286;2022-07-29T17:32:59;26.00;60.10
11597;DHT22;5854;48.072;16.286;2022-07-29T17:35:26;26.10;59.30
11597;DHT22;5854;48.072;16.286;2022-07-29T17:38:12;26.00;59.60
11597;DHT22;5854;48.072;16.286;2022-07-29T17:40:39;25.80;62.30
11597;DHT22;5854;48.072;16.286;2022-07-29T17:43:06;25.80;61.90
11597;DHT22;5854;48.072;16.286;2022-07-29T17:45:33;25.80;59.20
11597;DHT22;5854;48.072;16.286;2022-07-29T17:48:00;25.80;61.90
11597;DHT22;5854;48.072;16.286;2022-07-29T17:50:28;25.70;63.40
11597;DHT22;5854;48.072;16.286;2022-07-29T17:52:55;25.60;67.40
11597;DHT22;5854;48.072;16.286;2022-07-29T17:55:23;25.50;67.50
11597;DHT22;5854;48.072;16.286;2022-07-29T17:57:50;25.50;61.50
11597;DHT22;5854;48.072;16.286;2022-07-29T18:00:17;25.60;61.40
11597;DHT22;5854;48.072;16.286;2022-07-29T18:02:45;25.50;67.50
11597;DHT22;5854;48.072;16.286;2022-07-29T18:05:13;25.40;63.40
11597;DHT22;5854;48.072;16.286;2022-07-29T18:07:40;25.40;58.90
11597;DHT22;5854;48.072;16.286;2022-07-29T18:10:08;25.40;59.10
11597;DHT22;5854;48.072;16.286;2022-07-29T18:12:37;25.50;64.80
11597;DHT22;5854;48.072;16.286;2022-07-29T18:15:05;25.40;59.00
11597;DHT22;5854;48.072;16.286;2022-07-29T18:17:32;25.30;62.10
11597;DHT22;5854;48.072;16.286;2022-07-29T18:19:59;25.30;59.40
11597;DHT22;5854;48.072;16.286;2022-07-29T18:22:26;25.10;64.20
11597;DHT22;5854;48.072;16.286;2022-07-29T18:24:53;25.00;67.80
11597;DHT22;5854;48.072;16.286;2022-07-29T18:27:21;24.90;66.90
11597;DHT22;5854;48.072;16.286;2022-07-29T18:29:53;24.70;66.80
11597;DHT22;5854;48.072;16.286;2022-07-29T18:32:21;24.60;66.30
11597;DHT22;5854;48.072;16.286;2022-07-29T18:34:48;24.50;63.20
11597;DHT22;5854;48.072;16.286;2022-07-29T18:37:15;24.60;60.00
11597;DHT22;5854;48.072;16.286;2022-07-29T18:39:43;24.70;65.40
11597;DHT22;5854;48.072;16.286;2022-07-29T18:42:10;24.60;62.20
11597;DHT22;5854;48.072;16.286;2022-07-29T18:44:37;24.60;61.60
11597;DHT22;5854;48.072;16.286;2022-07-29T18:47:06;24.60;60.00
11597;DHT22;5854;48.072;16.286;2022-07-29T18:49:33;24.60;66.60
11597;DHT22;5854;48.072;16.286;2022-07-29T18:52:00;24.30;67.00
11597;DHT22;5854;48.072;16.286;2022-07-29T18:54:27;24.30;61.10
11597;DHT22;5854;48.072;16.286;2022-07-29T18:56:55;24.50;60.10
11597;DHT22;5854;48.072;16.286;2022-07-29T18:59:22;24.40;65.40
11597;DHT22;5854;48.072;16.286;2022-07-29T19:01:49;24.30;65.80
11597;DHT22;5854;48.072;16.286;2022-07-29T19:04:18;24.20;67.70
11597;DHT22;5854;48.072;16.286;2022-07-29T19:06:45;24.00;66.80
11597;DHT22;5854;48.072;16.286;2022-07-29T19:09:12;24.00;61.70
11597;DHT22;5854;48.072;16.286;2022-07-29T19:11:39;24.00;67.10
11597;DHT22;5854;48.072;16.286;2022-07-29T19:14:07;23.80;68.50
11597;DHT22;5854;48.072;16.286;2022-07-29T19:16:34;23.80;63.60
11597;DHT22;5854;48.072;16.286;2022-07-29T19:19:01;24.00;61.80
11597;DHT22;5854;48.072;16.286;2022-07-29T19:21:30;24.00;65.50
11597;DHT22;5854;48.072;16.286;2022-07-29T19:23:57;23.90;65.90
11597;DHT22;5854;48.072;16.286;2022-07-29T19:26:24;23.90;61.50
11597;DHT22;5854;48.072;16.286;2022-07-29T19:28:51;24.00;61.40
11597;DHT22;5854;48.072;16.286;2022-07-29T19:31:19;24.00;61.00
11597;DHT22;5854;48.072;16.286;2022-07-29T19:33:46;23.90;65.20
11597;DHT22;5854;48.072;16.286;2022-07-29T19:36:13;23.60;66.70
11597;DHT22;5854;48.072;16.286;2022-07-29T19:38:42;23.70;63.70
11597;DHT22;5854;48.072;16.286;2022-07-29T19:41:09;23.70;62.10
11597;DHT22;5854;48.072;16.286;2022-07-29T19:43:37;23.80;62.60
11597;DHT22;5854;48.072;16.286;2022-07-29T19:46:05;23.80;61.40
11597;DHT22;5854;48.072;16.286;2022-07-29T19:48:32;23.80;60.80
11597;DHT22;5854;48.072;16.286;2022-07-29T19:50:59;23.80;61.50
11597;DHT22;5854;48.072;16.286;2022-07-29T19:53:26;23.70;65.00
11597;DHT22;5854;48.072;16.286;2022-07-29T19:55:54;23.60;63.80
11597;DHT22;5854;48.072;16.286;2022-07-29T19:58:21;23.50;63.80
11597;DHT22;5854;48.072;16.286;2022-07-29T20:00:48;23.40;65.30
11597;DHT22;5854;48.072;16.286;2022-07-29T20:03:16;23.40;63.40
11597;DHT22;5854;48.072;16.286;2022-07-29T20:05:43;23.30;63.30
11597;DHT22;5854;48.072;16.286;2022-07-29T20:08:10;23.40;63.00
11597;DHT22;5854;48.072;16.286;2022-07-29T20:10:37;23.30;66.60
11597;DHT22;5854;48.072;16.286;2022-07-29T20:13:05;23.30;63.60
11597;DHT22;5854;48.072;16.286;2022-07-29T20:15:32;23.40;62.30
11597;DHT22;5854;48.072;16.286;2022-07-29T20:17:59;23.50;62.30
11597;DHT22;5854;48.072;16.286;2022-07-29T20:20:27;23.40;62.70
11597;DHT22;5854;48.072;16.286;2022-07-29T20:22:55;23.20;63.00
11597;DHT22;5854;48.072;16.286;2022-07-29T20:25:24;23.20;63.20
11597;DHT22;5854;48.072;16.286;2022-07-29T20:27:51;23.20;66.60
11597;DHT22;5854;48.072;16.286;2022-07-29T20:30:20;23.00;64.70
11597;DHT22;5854;48.072;16.286;2022-07-29T20:32:48;23.00;64.00
11597;DHT22;5854;48.072;16.286;2022-07-29T20:35:15;23.00;67.10
11597;DHT22;5854;48.072;16.286;2022-07-29T20:37:42;23.00;63.20
11597;DHT22;5854;48.072;16.286;2022-07-29T20:40:10;23.10;64.50
11597;DHT22;5854;48.072;16.286;2022-07-29T20:42:37;23.00;66.50
11597;DHT22;5854;48.072;16.286;2022-07-29T20:45:05;23.00;63.50
11597;DHT22;5854;48.072;16.286;2022-07-29T20:47:35;23.10;64.40
11597;DHT22;5854;48.072;16.286;2022-07-29T20:50:02;22.80;66.80
11597;DHT22;5854;48.072;16.286;2022-07-29T20:52:30;22.60;67.40
11597;DHT22;5854;48.072;16.286;2022-07-29T20:54:57;22.60;67.40
11597;DHT22;5854;48.072;16.286;2022-07-29T20:57:24;22.50;69.00
11597;DHT22;5854;48.072;16.286;2022-07-29T20:59:51;22.50;67.90
11597;DHT22;5854;48.072;16.286;2022-07-29T21:02:18;22.40;66.80
11597;DHT22;5854;48.072;16.286;2022-07-29T21:04:47;22.60;66.70
11597;DHT22;5854;48.072;16.286;2022-07-29T21:07:14;22.50;66.40
11597;DHT22;5854;48.072;16.286;2022-07-29T21:09:41;22.60;66.90
11597;DHT22;5854;48.072;16.286;2022-07-29T21:12:08;22.60;65.60
11597;DHT22;5854;48.072;16.286;2022-07-29T21:14:36;22.70;66.40
11597;DHT22;5854;48.072;16.286;2022-07-29T21:17:22;22.60;66.50
11597;DHT22;5854;48.072;16.286;2022-07-29T21:19:51;22.40;67.10
11597;DHT22;5854;48.072;16.286;2022-07-29T21:22:20;22.40;67.60
11597;DHT22;5854;48.072;16.286;2022-07-29T21:24:47;22.30;67.10
11597;DHT22;5854;48.072;16.286;2022-07-29T21:27:15;22.40;65.40
11597;DHT22;5854;48.072;16.286;2022-07-29T21:30:00;22.50;65.10
11597;DHT22;5854;48.072;16.286;2022-07-29T21:32:27;22.40;65.10
11597;DHT22;5854;48.072;16.286;2022-07-29T21:34:56;22.40;66.40
11597;DHT22;5854;48.072;16.286;2022-07-29T21:37:23;22.20;66.30
11597;DHT22;5854;48.072;16.286;2022-07-29T21:39:51;22.30;65.80
11597;DHT22;5854;48.072;16.286;2022-07-29T21:42:18;22.20;67.10
11597;DHT22;5854;48.072;16.286;2022-07-29T21:44:45;22.20;66.00
11597;DHT22;5854;48.072;16.286;2022-07-29T21:47:12;22.20;67.30
11597;DHT22;5854;48.072;16.286;2022-07-29T21:49:40;22.10;67.10
11597;DHT22;5854;48.072;16.286;2022-07-29T21:52:09;22.00;68.00
11597;DHT22;5854;48.072;16.286;2022-07-29T21:54:36;22.00;67.30
11597;DHT22;5854;48.072;16.286;2022-07-29T21:57:03;22.10;67.10
11597;DHT22;5854;48.072;16.286;2022-07-29T21:59:31;22.10;66.10
11597;DHT22;5854;48.072;16.286;2022-07-29T22:01:58;22.30;65.90
11597;DHT22;5854;48.072;16.286;2022-07-29T22:04:26;22.10;65.90
11597;DHT22;5854;48.072;16.286;2022-07-29T22:06:53;22.20;64.80
11597;DHT22;5854;48.072;16.286;2022-07-29T22:09:21;22.30;64.40